Time;durP1;ratioP1;P1;durP2;ratioP2;P2;SDS_P1;SDS_P2;PMS_P1;PMS_P2;Temp;Humidity;BMP_temperature;BMP_pressure;BME280_temperature;BME280_humidity;BME280_pressure;Samples;Min_cycle;Max_cycle;Signal;HPM_P1;HPM_P2
2023/01/10 00:01:58;;;;;;;26.17;17.23;;;;;;;9.39;100.00;78499.88;5073791;28;20295;-60
2023/01/10 00:04:27;;;;;;;19.63;15.50;;;;;;;9.26;100.00;65125.88;5073829;28;20196;-60
2023/01/10 00:06:54;;;;;;;34.83;17.67;;;;;;;9.23;100.00;52467.66;5074057;28;20643;-60
2023/01/10 00:09:21;;;;;;;23.23;17.90;;;;;;;9.20;100.00;46639.75;5073698;28;20188;-60
2023/01/10 00:14:34;;;;;;;26.30;17.20;;;;;;;9.04;100.00;28574.56;5073791;28;20196;-60
2023/01/10 00:17:01;;;;;;;29.03;19.07;;;;;;;9.03;100.00;23113.16;5073882;28;20184;-59
2023/01/10 00:19:28;;;;;;;26.77;19.27;;;;;;;8.89;100.00;18617.84;5073607;28;20189;-60
2023/01/10 00:22:01;;;;;;;24.80;19.23;;;;;;;9.02;100.00;16379.53;5073417;28;20299;-61
2023/01/10 00:24:28;;;;;;;32.07;20.03;;;;;;;9.10;100.00;16061.59;5073541;28;20203;-60
2023/01/10 00:26:55;;;;;;;34.47;22.00;;;;;;;9.11;100.00;14140.50;5072348;28;20208;-60
2023/01/10 00:29:25;;;;;;;30.93;20.77;;;;;;;9.15;100.00;11901.25;5073911;28;20184;-62
2023/01/10 00:31:53;;;;;;;37.97;23.97;;;;;;;9.06;100.00;9660.63;5073690;28;20181;-61
2023/01/10 00:34:20;;;;;;;38.73;22.53;;;;;;;9.13;100.00;7105.25;5073401;28;20259;-59
2023/01/10 00:36:47;;;;;;;33.17;22.33;;;;;;;9.15;100.00;4231.56;5073603;28;20636;-61
2023/01/10 00:39:14;;;;;;;33.77;21.63;;;;;;;9.21;100.00;2955.56;5072887;28;20230;-59
2023/01/10 00:44:26;;;;;;;33.73;22.37;;;;;;;9.26;100.00;2317.84;5073195;28;20172;-61
2023/01/10 00:46:54;;;;;;;36.30;22.37;;;;;;;9.22;100.00;722.63;5073421;28;20192;-60
2023/01/10 00:49:21;;;;;;;38.63;22.97;;;;;;;9.18;100.00;84.69;5073106;28;20200;-59
2023/01/10 00:51:48;;;;;;;37.00;21.77;;;;;;;9.18;100.00;-871.59;5073280;28;20215;-60
2023/01/10 00:54:16;;;;;;;34.60;22.90;;;;;;;9.24;100.00;-1508.84;5073217;28;20559;-60
2023/01/10 00:56:42;;;;;;;36.23;23.50;;;;;;;9.24;100.00;-1827.53;5073117;28;20619;-60
2023/01/10 00:59:09;;;;;;;41.77;24.53;;;;;;;9.31;100.00;-2464.69;5072935;28;20238;-61
2023/01/10 01:01:36;;;;;;;38.50;23.87;;;;;;;9.32;100.00;-2464.69;5071839;28;20208;-60
2023/01/10 01:04:05;;;;;;;37.53;23.90;;;;;;;9.33;100.00;-3101.91;5072992;28;20189;-60
2023/01/10 01:06:32;;;;;;;35.60;22.97;;;;;;;9.28;100.00;-3738.94;5072967;28;20180;-60
2023/01/10 01:08:59;;;;;;;34.47;23.77;;;;;;;9.44;100.00;-4057.66;5072968;28;20188;-60
2023/01/10 01:11:26;;;;;;;41.87;23.50;;;;;;;9.48;100.00;-4057.72;5072485;28;20181;-60
2023/01/10 01:13:53;;;;;;;38.47;23.63;;;;;;;9.51;100.00;-4376.34;5072405;28;20192;-60
2023/01/10 01:16:20;;;;;;;41.30;23.17;;;;;;;9.44;100.00;-3420.50;5072503;28;20187;-60
2023/01/10 01:18:47;;;;;;;40.40;23.90;;;;;;;9.48;100.00;-3739.13;5072571;28;20207;-60
2023/01/10 01:21:15;;;;;;;36.00;23.63;;;;;;;9.56;100.00;-4057.84;5072268;28;20205;-62
2023/01/10 01:23:42;;;;;;;34.67;24.30;;;;;;;9.56;100.00;-5013.50;5072667;28;20192;-60
2023/01/10 01:26:09;;;;;;;43.03;23.77;;;;;;;9.61;100.00;-5013.66;5072578;28;20211;-60
2023/01/10 01:28:37;;;;;;;41.43;25.43;;;;;;;9.61;100.00;-4695.13;5072242;28;20192;-60
2023/01/10 01:31:08;;;;;;;42.77;25.03;;;;;;;9.64;100.00;-5013.75;5072251;28;20239;-60
2023/01/10 01:33:34;;;;;;;39.03;22.80;;;;;;;9.71;100.00;-5332.53;5072310;28;20224;-59
2023/01/10 01:36:01;;;;;;;39.20;23.43;;;;;;;9.75;100.00;-5332.66;5072416;28;20631;-61
2023/01/10 01:38:30;;;;;;;42.17;24.97;;;;;;;9.75;100.00;-5332.66;5072079;28;20184;-60
2023/01/10 01:40:56;;;;;;;38.67;24.17;;;;;;;9.79;100.00;-5969.94;5072270;28;20574;-60
2023/01/10 01:43:26;;;;;;;41.80;24.47;;;;;;;9.79;100.00;-5651.41;5072244;28;20642;-59
2023/01/10 01:45:54;;;;;;;34.10;22.63;;;;;;;9.77;100.00;-5969.84;5072242;28;20580;-60
2023/01/10 01:48:28;;;;;;;39.43;25.30;;;;;;;9.83;100.00;-5970.09;5071927;28;20188;-61
2023/01/10 01:51:04;;;;;;;39.60;24.77;;;;;;;9.82;100.00;-6607.13;5071235;28;20180;-60
2023/01/10 01:53:37;;;;;;;42.33;24.47;;;;;;;9.81;100.00;-6925.50;5072096;28;20605;-59
2023/01/10 01:56:10;;;;;;;36.50;22.43;;;;;;;9.78;100.00;-7562.16;5071666;28;20195;-60
2023/01/10 01:58:44;;;;;;;36.13;23.53;;;;;;;9.87;100.00;-6925.91;5072008;28;20192;-60
2023/01/10 02:01:12;;;;;;;42.53;22.23;;;;;;;9.94;100.00;-7881.72;5070626;28;20235;-61
2023/01/10 02:03:42;;;;;;;38.63;22.43;;;;;;;9.92;100.00;-7881.63;5071931;28;20192;-61
2023/01/10 02:06:09;;;;;;;37.53;22.07;;;;;;;9.92;100.00;-8199.97;5071622;28;20185;-60
2023/01/10 02:08:41;;;;;;;37.13;21.73;;;;;;;9.97;100.00;-7563.50;5071644;28;20275;-61
2023/01/10 02:11:10;;;;;;;34.40;22.43;;;;;;;9.97;100.00;-8200.38;5071417;28;20176;-61
2023/01/10 02:13:40;;;;;;;40.93;22.67;;;;;;;9.98;100.00;-8518.88;5071485;28;20214;-60
2023/01/10 02:16:08;;;;;;;36.43;23.33;;;;;;;10.12;100.00;-8520.09;5071718;28;20192;-59
2023/01/10 02:18:35;;;;;;;39.43;22.00;;;;;;;10.13;100.00;-8520.19;5071462;28;20185;-60
2023/01/10 02:21:41;;;;;;;42.33;24.43;;;;;;;10.16;100.00;-8520.44;5071329;28;20209;-60
2023/01/10 02:24:57;;;;;;;40.53;23.67;;;;;;;10.20;100.00;-8520.78;5071094;28;20544;-60
2023/01/10 02:27:27;;;;;;;43.97;22.93;;;;;;;10.23;100.00;-8521.03;5061623;28;20192;-60
2023/01/10 02:30:39;;;;;;;34.70;23.63;;;;;;;10.32;100.00;-8521.81;5071506;28;20226;-60
2023/01/10 02:33:17;;;;;;;42.33;23.43;;;;;;;10.27;100.00;-8202.78;5071504;28;20602;-60
2023/01/10 02:35:55;;;;;;;37.67;22.83;;;;;;;10.38;100.00;-7247.72;5071219;28;20195;-61
2023/01/10 02:38:32;;;;;;;44.60;23.17;;;;;;;10.47;100.00;-7248.31;5071179;28;20180;-60
2023/01/10 02:41:06;;;;;;;35.70;21.73;;;;;;;10.48;100.00;-6929.59;5071166;28;20215;-61
2023/01/10 02:43:38;;;;;;;39.13;23.47;;;;;;;10.46;100.00;-6929.44;5071342;28;20246;-61
2023/01/10 02:46:09;;;;;;;35.80;22.80;;;;;;;10.22;100.00;-8202.44;5071236;28;20261;-61
2023/01/10 02:48:37;;;;;;;38.97;23.27;;;;;;;10.54;100.00;-7567.53;5071377;28;20192;-60
2023/01/10 02:51:08;;;;;;;35.03;23.07;;;;;;;10.62;100.00;-6930.41;5071355;28;20196;-60
2023/01/10 02:53:39;;;;;;;42.60;22.10;;;;;;;10.64;100.00;-6611.63;5071766;28;20606;-60
2023/01/10 02:56:39;;;;;;;34.27;22.50;;;;;;;10.64;100.00;-6292.72;5071937;28;20196;-61
2023/01/10 02:59:35;;;;;;;46.20;23.47;;;;;;;10.68;100.00;-6930.75;5073115;28;20624;-60
2023/01/10 03:02:10;;;;;;;43.30;23.10;;;;;;;10.67;100.00;-7568.41;5072727;28;20579;-60
2023/01/10 03:04:49;;;;;;;41.03;23.10;;;;;;;10.76;100.00;-7250.19;5077034;28;20312;-61
2023/01/10 03:07:20;;;;;;;45.20;23.57;;;;;;;10.72;100.00;-6931.00;5076541;28;20192;-60
2023/01/10 03:09:55;;;;;;;38.63;21.90;;;;;;;10.65;100.00;-8205.91;5076318;28;20185;-61
2023/01/10 03:12:28;;;;;;;40.90;22.17;;;;;;;10.64;100.00;-8843.22;5075118;28;20187;-60
2023/01/10 03:14:57;;;;;;;38.13;22.57;;;;;;;10.70;100.00;-8843.78;5075387;28;20234;-61
2023/01/10 03:17:27;;;;;;;42.33;22.20;;;;;;;10.62;100.00;-9480.34;5074935;28;20185;-60
2023/01/10 03:20:00;;;;;;;37.47;22.77;;;;;;;10.63;100.00;-10117.63;5074831;28;20196;-60
2023/01/10 03:22:30;;;;;;;38.97;21.10;;;;;;;10.64;100.00;-9799.16;5074823;28;20204;-60
2023/01/10 03:25:01;;;;;;;39.03;21.97;;;;;;;10.61;100.00;-9798.84;5074867;28;20200;-60
2023/01/10 03:27:34;;;;;;;38.53;22.63;;;;;;;10.58;100.00;-10117.13;5074624;28;20194;-60
2023/01/10 03:30:06;;;;;;;42.17;22.13;;;;;;;10.57;100.00;-10435.47;5074618;28;20246;-60
2023/01/10 03:32:33;;;;;;;39.17;22.10;;;;;;;10.62;100.00;-10117.50;5074609;28;20192;-61
2023/01/10 03:35:03;;;;;;;44.53;23.77;;;;;;;10.61;100.00;-9798.88;5074448;28;20236;-60
2023/01/10 03:37:37;;;;;;;43.90;23.70;;;;;;;10.58;100.00;-10754.06;5074646;28;20547;-61
2023/01/10 03:40:13;;;;;;;42.13;23.17;;;;;;;10.59;100.00;-10117.22;5074465;28;20189;-62
2023/01/10 03:45:41;;;;;;;48.10;21.43;;;;;;;10.65;100.00;-9480.63;5074554;28;20227;-59
2023/01/10 03:48:11;;;;;;;36.40;23.53;;;;;;;10.62;100.00;-10117.56;5074329;28;20552;-59
2023/01/10 03:50:42;;;;;;;44.23;23.80;;;;;;;10.68;100.00;-9480.94;5074350;28;20185;-61
2023/01/10 03:53:10;;;;;;;40.57;24.30;;;;;;;10.68;100.00;-8524.91;5074478;28;20604;-61
2023/01/10 03:55:39;;;;;;;41.63;24.77;;;;;;;10.68;100.00;-8524.84;5074621;28;20269;-62
2023/01/10 03:58:06;;;;;;;43.30;24.60;;;;;;;10.73;100.00;-7887.69;5074080;28;20181;-60
2023/01/10 04:00:33;;;;;;;43.93;24.27;;;;;;;10.62;100.00;-7249.25;5074170;28;20192;-60
2023/01/10 04:03:00;;;;;;;48.63;26.50;;;;;;;10.42;100.00;-5972.78;5074085;28;20213;-60
2023/01/10 04:05:27;;;;;;;51.67;26.03;;;;;;;10.73;100.00;-5655.13;5074297;28;20188;-60
2023/01/10 04:07:55;;;;;;;42.77;26.17;;;;;;;10.65;100.00;-5335.75;5074102;28;20216;-61
2023/01/10 04:10:25;;;;;;;49.03;26.33;;;;;;;10.73;100.00;-5336.06;5073632;28;20191;-60
2023/01/10 04:12:52;;;;;;;49.30;27.30;;;;;;;10.67;100.00;-4697.66;5073963;28;20204;-60
2023/01/10 04:15:19;;;;;;;47.37;25.37;;;;;;;10.69;100.00;-5016.81;5073122;28;20196;-60
2023/01/10 04:17:47;;;;;;;37.17;24.17;;;;;;;10.67;100.00;-5016.75;5073791;28;20199;-61
2023/01/10 04:20:14;;;;;;;42.17;24.53;;;;;;;10.53;100.00;-5016.38;5073520;28;20192;-60
2023/01/10 04:22:41;;;;;;;43.97;26.83;;;;;;;10.71;100.00;-4697.78;5073684;28;20683;-61
2023/01/10 04:25:10;;;;;;;48.40;26.93;;;;;;;10.73;100.00;-4697.81;5073912;28;20201;-61
2023/01/10 04:27:37;;;;;;;50.90;27.33;;;;;;;10.66;100.00;-5016.75;5073480;28;20567;-60
2023/01/10 04:30:04;;;;;;;50.87;26.77;;;;;;;10.84;100.00;-4698.09;5073351;28;20197;-61
2023/01/10 04:32:31;;;;;;;46.33;26.73;;;;;;;10.75;100.00;-4059.50;5073407;28;20188;-60
2023/01/10 04:34:58;;;;;;;44.33;25.67;;;;;;;10.66;100.00;-5973.81;5073267;28;20715;-60
2023/01/10 04:37:25;;;;;;;45.93;26.70;;;;;;;10.66;100.00;-6611.72;5073639;28;20185;-60
2023/01/10 04:39:51;;;;;;;42.43;26.43;;;;;;;10.68;100.00;-6930.75;5073562;28;20572;-60
2023/01/10 04:42:20;;;;;;;46.33;26.90;;;;;;;10.69;100.00;-5973.97;5073447;28;20296;-60
2023/01/10 04:44:47;;;;;;;43.67;25.67;;;;;;;10.65;100.00;-5973.78;5073135;28;20192;-60
2023/01/10 04:47:14;;;;;;;48.73;26.33;;;;;;;10.71;100.00;-6612.00;5073570;28;20646;-60
2023/01/10 04:49:41;;;;;;;48.17;26.10;;;;;;;10.74;100.00;-6293.22;5073550;28;20188;-61
2023/01/10 04:52:08;;;;;;;43.87;26.40;;;;;;;10.68;100.00;-6611.84;5073334;28;20561;-61
2023/01/10 04:54:35;;;;;;;46.33;27.17;;;;;;;10.71;100.00;-7568.69;5073558;28;20212;-61
2023/01/10 04:57:01;;;;;;;53.83;29.17;;;;;;;10.72;100.00;-7887.63;5073290;28;20631;-61
2023/01/10 04:59:30;;;;;;;47.20;29.87;;;;;;;10.60;100.00;-7249.09;5073256;28;20536;-60
2023/01/10 05:01:57;;;;;;;48.80;28.37;;;;;;;10.83;100.00;-7569.56;5072973;28;20215;-61
2023/01/10 05:04:25;;;;;;;42.70;27.47;;;;;;;10.87;100.00;-6931.91;5073181;28;20184;-60
2023/01/10 05:06:52;;;;;;;52.47;28.97;;;;;;;10.72;100.00;-6931.00;5072884;28;20193;-60
2023/01/10 05:09:18;;;;;;;51.43;28.43;;;;;;;10.72;100.00;-8525.19;5072675;28;20189;-61
2023/01/10 05:11:45;;;;;;;52.07;27.67;;;;;;;10.74;100.00;-9481.59;5073176;28;20177;-60
2023/01/10 05:14:12;;;;;;;54.77;30.33;;;;;;;10.77;100.00;-9481.88;5072872;28;20543;-61
2023/01/10 05:16:40;;;;;;;48.83;28.27;;;;;;;10.84;100.00;-9163.84;5072672;28;20185;-60
2023/01/10 05:19:07;;;;;;;54.60;27.30;;;;;;;10.75;100.00;-7887.84;5072792;28;20632;-60
2023/01/10 05:21:34;;;;;;;49.57;28.80;;;;;;;10.75;100.00;-7568.97;5072683;28;20203;-61
2023/01/10 05:24:01;;;;;;;40.60;26.47;;;;;;;10.75;100.00;-6931.22;5072446;28;20189;-61
2023/01/10 05:26:28;;;;;;;41.33;25.03;;;;;;;10.67;100.00;-5973.88;5071326;28;20188;-61
2023/01/10 05:28:54;;;;;;;39.33;24.73;;;;;;;10.73;100.00;-4059.47;5072650;28;20250;-61
2023/01/10 05:31:21;;;;;;;42.27;24.20;;;;;;;10.69;100.00;-226.94;5072067;28;20195;-61
2023/01/10 05:33:51;;;;;;;42.40;24.87;;;;;;;10.72;100.00;3610.31;5072299;28;20228;-60
2023/01/10 05:36:19;;;;;;;31.17;21.17;;;;;;;10.76;100.00;5211.00;5072063;28;20188;-60
2023/01/10 05:38:46;;;;;;;32.87;21.40;;;;;;;10.87;100.00;11301.59;5072300;28;20662;-60
2023/01/10 05:41:13;;;;;;;34.40;21.67;;;;;;;10.97;100.00;16441.16;5071904;28;20196;-60
2023/01/10 05:43:40;;;;;;;33.17;20.80;;;;;;;11.01;100.00;19657.47;5071847;28;20210;-61
2023/01/10 05:46:07;;;;;;;37.83;20.90;;;;;;;11.11;100.00;21592.03;5071868;28;20185;-60
2023/01/10 05:48:34;;;;;;;35.87;18.80;;;;;;;11.14;100.00;27070.06;5071876;28;20205;-60
2023/01/10 05:51:02;;;;;;;37.33;20.00;;;;;;;11.20;100.00;30622.13;5071929;28;20185;-61
2023/01/10 05:53:29;;;;;;;37.40;21.20;;;;;;;11.27;100.00;31272.03;5071715;28;20215;-61
2023/01/10 05:55:57;;;;;;;29.30;19.47;;;;;;;11.31;100.00;36445.34;5071983;28;20655;-60
2023/01/10 05:58:24;;;;;;;29.53;21.20;;;;;;;11.37;100.00;41304.81;5071691;28;20211;-61
2023/01/10 06:00:52;;;;;;;37.53;22.37;;;;;;;11.16;100.00;45826.13;5071739;28;20196;-60
2023/01/10 06:03:19;;;;;;;40.93;20.97;;;;;;;11.13;100.00;42582.41;5071632;28;20214;-60
2023/01/10 06:05:46;;;;;;;32.63;20.87;;;;;;;11.11;100.00;43552.84;5071588;28;20187;-60
2023/01/10 06:08:14;;;;;;;36.63;20.30;;;;;;;11.15;100.00;41612.59;5071581;28;20188;-61
2023/01/10 06:10:44;;;;;;;34.57;19.70;;;;;;;11.04;100.00;41604.16;5071755;28;20195;-60
2023/01/10 06:13:12;;;;;;;37.00;20.17;;;;;;;11.09;100.00;40636.88;5071623;28;20197;-61
2023/01/10 06:15:39;;;;;;;33.10;19.37;;;;;;;11.00;100.00;41925.75;5071726;28;20278;-60
2023/01/10 06:18:07;;;;;;;28.17;19.37;;;;;;;11.16;100.00;43233.00;5071797;28;20632;-60
2023/01/10 06:20:34;;;;;;;32.67;19.90;;;;;;;11.13;100.00;43878.78;5071941;28;20188;-59
2023/01/10 06:23:03;;;;;;;41.30;19.80;;;;;;;11.13;100.00;41935.00;5071598;28;20205;-59
2023/01/10 06:25:32;;;;;;;36.13;19.97;;;;;;;11.14;100.00;43555.53;5071844;28;20234;-59
2023/01/10 06:27:59;;;;;;;36.33;17.97;;;;;;;11.12;100.00;41610.41;5071439;28;20188;-59
2023/01/10 06:30:26;;;;;;;36.53;22.20;;;;;;;11.11;100.00;41609.31;5071543;28;20658;-59
2023/01/10 06:32:53;;;;;;;41.30;22.07;;;;;;;11.19;100.00;43559.34;5071585;28;20207;-60
2023/01/10 06:35:20;;;;;;;30.30;19.77;;;;;;;11.21;100.00;54922.53;5071801;28;20185;-60
2023/01/10 06:37:47;;;;;;;36.77;19.77;;;;;;;11.23;100.00;58502.75;5071174;28;20188;-60
2023/01/10 06:40:14;;;;;;;27.43;19.07;;;;;;;11.10;100.00;53936.38;5071047;28;20347;-59
2023/01/10 06:42:42;;;;;;;40.13;20.13;;;;;;;11.02;100.00;50356.16;5071165;28;20671;-61
2023/01/10 06:45:10;;;;;;;30.43;17.57;;;;;;;11.02;100.00;53603.94;5070937;28;20307;-59
2023/01/10 06:47:37;;;;;;;21.93;16.57;;;;;;;11.07;100.00;59463.47;5070306;28;20208;-61
2023/01/10 06:50:05;;;;;;;24.80;18.23;;;;;;;10.98;100.00;57176.63;5071126;28;20191;-60
2023/01/10 06:52:32;;;;;;;34.80;19.37;;;;;;;10.83;100.00;47420.84;5071111;28;20189;-61
2023/01/10 06:54:59;;;;;;;24.17;17.73;;;;;;;10.79;100.00;48389.91;5071130;28;20624;-60
2023/01/10 06:57:29;;;;;;;28.00;19.43;;;;;;;10.86;100.00;47099.09;5069484;28;20207;-61
2023/01/10 06:59:57;;;;;;;24.53;17.87;;;;;;;10.93;100.00;48402.19;5070918;28;20254;-59
2023/01/10 07:02:24;;;;;;;27.23;17.47;;;;;;;10.95;100.00;57824.69;5070453;28;20208;-59
2023/01/10 07:04:51;;;;;;;25.50;17.27;;;;;;;11.04;100.00;60111.47;5070436;28;20189;-60
2023/01/10 07:07:17;;;;;;;31.07;17.63;;;;;;;11.04;100.00;62717.03;5070676;28;20276;-60
2023/01/10 07:09:45;;;;;;;26.70;17.80;;;;;;;11.01;100.00;63039.59;5070674;28;20189;-60
2023/01/10 07:12:12;;;;;;;33.07;18.33;;;;;;;11.03;100.00;61738.13;5069668;28;20192;-60
2023/01/10 07:14:39;;;;;;;30.50;18.43;;;;;;;11.14;100.00;63053.75;5070796;28;20239;-60
2023/01/10 07:17:07;;;;;;;28.53;17.30;;;;;;;11.08;100.00;65002.47;5070415;28;20193;-60
2023/01/10 07:19:34;;;;;;;32.70;18.23;;;;;;;11.06;100.00;60113.53;5070761;28;20536;-60
2023/01/10 07:22:00;;;;;;;31.30;18.60;;;;;;;11.16;100.00;61426.22;5069104;28;20189;-60
2023/01/10 07:24:27;;;;;;;40.57;20.27;;;;;;;11.22;100.00;60781.59;5070492;28;20556;-59
2023/01/10 07:26:55;;;;;;;33.93;20.30;;;;;;;11.30;100.00;59812.81;5070675;28;20627;-60
2023/01/10 07:29:22;;;;;;;36.30;19.53;;;;;;;11.24;100.00;57527.34;5070499;28;20193;-59
2023/01/10 07:31:49;;;;;;;37.13;19.37;;;;;;;11.20;100.00;53620.72;5070575;28;20189;-60
2023/01/10 07:34:17;;;;;;;38.23;20.80;;;;;;;11.24;100.00;49401.84;5070170;28;20694;-60
2023/01/10 07:36:44;;;;;;;34.60;19.93;;;;;;;11.25;100.00;47455.31;5070223;28;20188;-60
2023/01/10 07:39:11;;;;;;;34.17;18.77;;;;;;;11.28;100.00;49080.63;5070048;28;20223;-60
2023/01/10 07:41:38;;;;;;;32.40;18.93;;;;;;;11.20;100.00;54595.97;5070444;28;20500;-60
2023/01/10 07:44:05;;;;;;;25.60;18.63;;;;;;;11.61;100.00;66040.53;5070102;28;20212;-60
2023/01/10 07:46:32;;;;;;;28.40;18.97;;;;;;;11.86;100.00;77190.53;5070271;28;20204;-60
2023/01/10 07:48:59;;;;;;;32.87;19.83;;;;;;;12.01;100.00;94293.94;5071338;28;20655;-59
2023/01/10 07:51:27;;;;;;;25.30;17.97;;;;;;;12.24;100.00;110842.66;5073644;28;20191;-60
2023/01/10 07:53:54;;;;;;;26.67;16.83;;;;;;;12.26;100.00;122452.16;5073952;28;20219;-61
2023/01/10 07:56:21;;;;;;;29.20;17.97;;;;;;;12.16;100.00;122431.31;5073438;28;20190;-60
2023/01/10 07:58:47;;;;;;;31.93;19.57;;;;;;;12.15;100.00;117784.22;5073539;28;20189;-60
2023/01/10 08:01:17;;;;;;;25.30;17.77;;;;;;;12.24;100.00;125438.41;5073447;28;20220;-60
2023/01/10 08:03:44;;;;;;;27.70;17.83;;;;;;;12.33;100.00;125457.56;5073337;28;20215;-60
2023/01/10 08:06:11;;;;;;;34.47;16.70;;;;;;;12.51;100.00;144207.69;5072238;28;20567;-59
2023/01/10 08:08:39;;;;;;;28.83;17.70;;;;;;;12.70;100.00;149230.97;5073471;28;20189;-59
2023/01/10 08:11:07;;;;;;;22.30;15.57;;;;;;;12.75;100.00;149243.66;5073386;28;20185;-59
2023/01/10 08:13:34;;;;;;;24.07;16.93;;;;;;;12.65;100.00;149218.31;5073665;28;20193;-60
2023/01/10 08:16:05;;;;;;;35.50;17.53;;;;;;;12.67;100.00;149223.41;5073581;28;20670;-59
2023/01/10 08:18:32;;;;;;;27.77;18.03;;;;;;;12.54;100.00;149190.47;5073339;28;20181;-60
2023/01/10 08:20:59;;;;;;;26.77;15.80;;;;;;;12.39;100.00;149153.75;5073170;28;20185;-60
2023/01/10 08:23:27;;;;;;;32.97;17.20;;;;;;;12.45;100.00;149168.94;5071602;28;20310;-60
2023/01/10 08:25:58;;;;;;;39.00;18.93;;;;;;;12.49;100.00;149177.81;5073287;28;20643;-59
2023/01/10 08:28:25;;;;;;;25.40;17.90;;;;;;;12.43;100.00;149162.63;5073161;28;20200;-60
2023/01/10 08:30:54;;;;;;;25.67;16.03;;;;;;;12.30;100.00;149132.25;5072875;28;20192;-59
2023/01/10 08:33:22;;;;;;;29.00;16.13;;;;;;;12.27;100.00;149124.63;5073112;28;20583;-60
2023/01/10 08:35:49;;;;;;;26.43;17.27;;;;;;;12.04;100.00;149066.44;5073083;28;20260;-59
2023/01/10 08:38:16;;;;;;;29.20;17.50;;;;;;;12.32;100.00;149136.03;5072997;28;20189;-59
2023/01/10 08:40:43;;;;;;;42.30;17.03;;;;;;;12.41;100.00;149158.81;5073034;28;20184;-61
2023/01/10 08:43:12;;;;;;;23.90;15.97;;;;;;;12.38;100.00;149149.97;5073069;28;20208;-60
2023/01/10 08:45:39;;;;;;;27.63;15.83;;;;;;;12.17;100.00;149099.34;5073464;28;20212;-60
2023/01/10 08:48:08;;;;;;;30.00;17.50;;;;;;;12.40;100.00;149155.00;5072790;28;20192;-59
2023/01/10 08:50:35;;;;;;;36.67;19.13;;;;;;;12.37;100.00;149148.69;5073302;28;20556;-59
2023/01/10 08:53:02;;;;;;;35.50;18.97;;;;;;;12.44;100.00;149165.13;5073171;28;20281;-61
2023/01/10 08:55:30;;;;;;;22.67;17.50;;;;;;;12.53;100.00;149187.94;5073047;28;20192;-60
2023/01/10 08:57:59;;;;;;;39.30;17.77;;;;;;;12.58;100.00;149200.59;5073005;28;20185;-60
2023/01/10 09:00:27;;;;;;;33.00;17.10;;;;;;;12.78;100.00;149251.22;5072757;28;20188;-60
2023/01/10 09:02:54;;;;;;;27.37;17.20;;;;;;;12.99;100.00;149304.41;5092568;28;20599;-61
2023/01/10 09:05:24;;;;;;;20.93;16.27;;;;;;;12.98;100.00;149300.66;5092598;28;20196;-59
2023/01/10 09:07:51;;;;;;;21.53;16.23;;;;;;;13.49;100.00;149428.63;5092740;28;20248;-59
2023/01/10 09:10:20;;;;;;;21.50;16.37;;;;;;;13.60;100.00;149456.50;5092343;28;20543;-59
2023/01/10 09:12:56;;;;;;;25.10;15.70;;;;;;;13.51;100.00;149434.94;5092906;28;20188;-59
2023/01/10 09:15:24;;;;;;;25.80;16.27;;;;;;;13.96;100.00;149547.72;5092413;28;20631;-59
2023/01/10 09:17:55;;;;;;;24.63;16.80;;;;;;;14.11;100.00;149584.50;5092726;28;20540;-60
2023/01/10 09:20:23;;;;;;;19.53;16.07;;;;;;;13.98;100.00;149551.53;5092423;28;20520;-59
2023/01/10 09:22:50;;;;;;;33.67;15.63;;;;;;;13.83;100.00;149513.53;5090276;28;20195;-59
2023/01/10 09:25:19;;;;;;;27.97;16.03;;;;;;;13.72;100.00;149488.16;5092566;28;20206;-59
2023/01/10 09:27:45;;;;;;;18.63;16.23;;;;;;;13.62;100.00;149461.59;5092594;28;20276;-60
2023/01/10 09:30:13;;;;;;;21.37;13.87;;;;;;;13.47;100.00;149424.81;5092047;28;20199;-60
2023/01/10 09:32:40;;;;;;;19.90;15.90;;;;;;;13.45;100.00;149418.50;5093294;28;20195;-60
2023/01/10 09:35:09;;;;;;;24.53;17.13;;;;;;;13.37;100.00;149398.19;5092164;28;20245;-60
2023/01/10 09:37:36;;;;;;;18.47;14.10;;;;;;;13.20;100.00;149356.38;5092310;28;20237;-59
2023/01/10 09:40:06;;;;;;;27.80;16.03;;;;;;;13.39;100.00;149403.28;5092353;28;20623;-60
2023/01/10 09:42:52;;;;;;;28.37;16.13;;;;;;;13.42;100.00;149410.88;5091410;28;20288;-59
2023/01/10 09:45:26;;;;;;;34.90;15.73;;;;;;;13.51;100.00;149433.69;5091312;28;20306;-59
2023/01/10 09:48:00;;;;;;;21.00;15.73;;;;;;;13.61;100.00;149460.31;5094229;28;20640;-65
2023/01/10 09:50:38;;;;;;;25.07;14.67;;;;;;;13.52;100.00;149436.22;5092514;28;20183;-66
2023/01/10 09:53:12;;;;;;;22.67;15.10;;;;;;;13.68;100.00;149476.75;5092340;28;20253;-65
2023/01/10 09:55:42;;;;;;;22.37;14.57;;;;;;;14.06;100.00;149571.81;5090860;28;20188;-64
2023/01/10 09:58:14;;;;;;;19.77;15.03;;;;;;;14.04;100.00;149568.03;5092548;28;20180;-64
2023/01/10 10:03:53;;;;;;;19.60;14.00;;;;;;;14.04;100.00;149566.75;5092108;28;20207;-65
2023/01/10 10:06:23;;;;;;;16.17;13.20;;;;;;;14.43;100.00;149664.38;5092016;28;20202;-66
2023/01/10 10:08:52;;;;;;;23.33;13.70;;;;;;;14.80;100.00;149758.25;5091869;28;20237;-65
2023/01/10 10:11:50;;;;;;;20.27;14.33;;;;;;;14.97;100.00;149801.38;5091395;28;20191;-65
2023/01/10 10:14:31;;;;;;;18.73;13.40;;;;;;;14.86;100.00;149773.44;5091355;28;20200;-64
2023/01/10 10:17:13;;;;;;;22.70;13.10;;;;;;;14.94;100.00;149792.47;5091688;28;20665;-66
2023/01/10 10:19:57;;;;;;;17.13;12.70;;;;;;;14.53;100.00;149691.03;5091684;28;20194;-65
2023/01/10 10:22:37;;;;;;;22.20;12.90;;;;;;;14.17;100.00;149600.94;5091804;28;20194;-65
2023/01/10 10:25:15;;;;;;;21.67;12.17;;;;;;;14.14;100.00;149592.09;5092057;28;20575;-65
2023/01/10 10:27:59;;;;;;;18.83;12.83;;;;;;;14.04;100.00;149566.75;5091690;28;20191;-65
2023/01/10 10:30:35;;;;;;;27.23;13.67;;;;;;;13.84;100.00;149517.31;5091310;28;20657;-66
2023/01/10 10:33:38;;;;;;;22.50;14.07;;;;;;;13.76;100.00;149497.03;5091714;28;20574;-66
2023/01/10 10:36:12;;;;;;;17.87;12.57;;;;;;;13.66;100.00;149472.94;5091490;28;20192;-65
2023/01/10 10:38:45;;;;;;;25.30;12.57;;;;;;;13.63;100.00;149465.34;5091401;28;20187;-66
2023/01/10 10:41:17;;;;;;;28.13;13.03;;;;;;;13.51;100.00;149433.69;5091308;28;20275;-65
2023/01/10 10:43:47;;;;;;;27.13;13.93;;;;;;;13.28;100.00;149377.94;5091409;28;20666;-65
2023/01/10 10:46:18;;;;;;;25.53;14.47;;;;;;;13.09;100.00;149329.78;5091477;28;20188;-66
2023/01/10 10:48:53;;;;;;;20.10;15.43;;;;;;;13.38;100.00;149402.00;5091547;28;20188;-65
2023/01/10 10:51:25;;;;;;;18.60;14.33;;;;;;;13.53;100.00;149438.78;5091685;28;20660;-66
2023/01/10 10:53:55;;;;;;;26.73;13.67;;;;;;;13.46;100.00;149422.28;5091744;28;20188;-65
2023/01/10 10:56:25;;;;;;;22.07;12.93;;;;;;;13.49;100.00;149428.63;5091357;28;20192;-65
2023/01/10 10:58:55;;;;;;;20.13;13.80;;;;;;;13.27;100.00;149374.16;5091070;28;20271;-65
2023/01/10 11:01:23;;;;;;;29.33;13.47;;;;;;;13.30;100.00;149380.47;5091319;28;20180;-66
2023/01/10 11:03:54;;;;;;;18.37;12.57;;;;;;;13.37;100.00;149398.19;5090838;28;20204;-65
2023/01/10 11:06:25;;;;;;;16.30;10.70;;;;;;;13.10;100.00;149331.03;5091250;28;20565;-65
2023/01/10 11:08:56;;;;;;;23.07;12.17;;;;;;;13.17;100.00;149350.06;5091320;28;20192;-65
2023/01/10 11:11:27;;;;;;;20.73;11.93;;;;;;;13.08;100.00;149325.94;5090866;28;20257;-65
2023/01/10 11:13:56;;;;;;;18.57;12.80;;;;;;;12.79;100.00;149255.06;5076912;28;20571;-66
2023/01/10 11:16:29;;;;;;;22.50;13.43;;;;;;;12.87;100.00;149274.03;5088044;28;20189;-66
2023/01/10 11:19:18;;;;;;;30.37;14.03;;;;;;;12.79;100.00;149255.06;5088684;28;20192;-65
2023/01/10 11:21:48;;;;;;;29.87;15.53;;;;;;;12.74;100.00;149242.38;5088772;28;20271;-64
2023/01/10 11:24:28;;;;;;;32.90;14.23;;;;;;;12.77;100.00;149249.97;5089949;28;20212;-66
2023/01/10 11:26:56;;;;;;;21.33;13.03;;;;;;;12.69;100.00;149228.44;5092184;28;20180;-66
2023/01/10 11:29:26;;;;;;;36.03;15.40;;;;;;;12.71;100.00;149233.53;5093081;28;20223;-67
2023/01/10 11:31:56;;;;;;;28.77;12.80;;;;;;;12.56;100.00;149196.78;5094079;28;20619;-67
2023/01/10 11:34:26;;;;;;;24.60;13.00;;;;;;;12.54;100.00;149191.75;5094466;28;20238;-66